Gas Grouper — V7TZ2 — position and weather

sailwx.info

Track history (hours):
 
Tides and Currents Weather Stations Pressure Air Temp Water Temp Dewpoint Dewpoint Depression Visibility Wind Speed Wind Dir Waves Ship Positions

Gas Grouper

Last reported at 2015-Jan-31 21:30 UTC. Time now 2015-Feb-01 05:42 UTC.
Position N 39°41' E 025°45'.

Length 174 m; draft 6.9 m.

Type: Tanker. MMSI: 538003910.

Date/timePositionNaut miles runAvg speedWind from/ knotsBaromVisibWave heightAir tempDewpointWater temp
2015-Jan-31 21:30N 39°41' E 025°45'4 0.2
2015-Jan-31 00:21N 39°40' E 025°49'21 1.6
2015-Jan-30 11:24N 39°23' E 025°33'11315.6
2015-Jan-30 04:09N 37°41' E 024°31'  
2015-Jan-26 07:34N 36°02' W 005°14'1111.2
2015-Jan-26 06:33N 36°10' W 005°23'0 0.0
2015-Jan-26 05:31N 36°10' W 005°23'0 0.0
2015-Jan-26 04:31N 36°10' W 005°23'0 0.0
2015-Jan-26 03:31N 36°10' W 005°23'0 0.0
2015-Jan-26 02:19N 36°10' W 005°23'0 0.0
2015-Jan-26 01:31N 36°10' W 005°23'0 0.0
2015-Jan-26 00:31N 36°10' W 005°23'0 0.1
2015-Jan-25 23:28N 36°10' W 005°23'0 0.0
2015-Jan-25 22:31N 36°10' W 005°23'0 0.1
2015-Jan-25 21:25N 36°10' W 005°23'1 1.5
2015-Jan-25 20:33N 36°09' W 005°24'4 4.1
2015-Jan-25 19:33N 36°05' W 005°21'8 8.0
2015-Jan-25 18:33N 36°09' W 005°12'5 4.1
2015-Jan-25 17:21N 36°12' W 005°07'1 0.9
2015-Jan-25 16:33N 36°11' W 005°07'1 0.6
2015-Jan-25 15:33N 36°10' W 005°07'1 0.6
2015-Jan-25 14:30N 36°10' W 005°07'1 1.0
2015-Jan-25 13:33N 36°09' W 005°08'1110.8
2015-Jan-25 12:33N 36°01' W 005°16'  
Track history (hours):
 
Tides and Currents Weather Stations Pressure Air Temp Water Temp Dewpoint Dewpoint Depression Visibility Wind Speed Wind Dir Waves Ship Positions

Gas Grouper

Last reported at 2015-Jan-31 21:30 UTC. Time now 2015-Feb-01 05:42 UTC.
Position N 39°41' E 025°45'.

Length 174 m; draft 6.9 m.

Type: Tanker. MMSI: 538003910.

Date/timePositionNaut miles runAvg speedWind from/ knotsBaromVisibWave heightAir tempDewpointWater temp
2015-Jan-31 21:30N 39°41' E 025°45'4 0.2
2015-Jan-31 00:21N 39°40' E 025°49'21 1.6
2015-Jan-30 11:24N 39°23' E 025°33'11315.6
2015-Jan-30 04:09N 37°41' E 024°31'  
2015-Jan-26 07:34N 36°02' W 005°14'1111.2
2015-Jan-26 06:33N 36°10' W 005°23'0 0.0
2015-Jan-26 05:31N 36°10' W 005°23'0 0.0
2015-Jan-26 04:31N 36°10' W 005°23'0 0.0
2015-Jan-26 03:31N 36°10' W 005°23'0 0.0
2015-Jan-26 02:19N 36°10' W 005°23'0 0.0
2015-Jan-26 01:31N 36°10' W 005°23'0 0.0
2015-Jan-26 00:31N 36°10' W 005°23'0 0.1
2015-Jan-25 23:28N 36°10' W 005°23'0 0.0
2015-Jan-25 22:31N 36°10' W 005°23'0 0.1
2015-Jan-25 21:25N 36°10' W 005°23'1 1.5
2015-Jan-25 20:33N 36°09' W 005°24'4 4.1
2015-Jan-25 19:33N 36°05' W 005°21'8 8.0
2015-Jan-25 18:33N 36°09' W 005°12'5 4.1
2015-Jan-25 17:21N 36°12' W 005°07'1 0.9
2015-Jan-25 16:33N 36°11' W 005°07'1 0.6
2015-Jan-25 15:33N 36°10' W 005°07'1 0.6
2015-Jan-25 14:30N 36°10' W 005°07'1 1.0
2015-Jan-25 13:33N 36°09' W 005°08'1110.8
2015-Jan-25 12:33N 36°01' W 005°16'  

Dump ship's entire track history